Time;durP1;ratioP1;P1;durP2;ratioP2;P2;SDS_P1;SDS_P2;PMS_P1;PMS_P2;Temp;Humidity;BMP_temperature;BMP_pressure;BME280_temperature;BME280_humidity;BME280_pressure;Samples;Min_cycle;Max_cycle;Signal;HPM_P1;HPM_P2
2023/02/08 00:00:03;;;;;;;21.05;9.48;;;;;;;-8.86;78.92;97945.88;2097716;28;20044;-77
2023/02/08 00:01:08;;;;;;;15.68;7.72;;;;;;;-8.69;78.83;97943.53;2106987;28;20055;-77
2023/02/08 00:02:09;;;;;;;20.48;8.98;;;;;;;-8.77;79.04;97942.22;2106774;28;20047;-77
2023/02/08 00:03:10;;;;;;;19.35;8.18;;;;;;;-8.50;78.17;97937.94;2106548;28;20495;-77
2023/02/08 00:04:12;;;;;;;16.05;8.00;;;;;;;-8.47;77.20;97943.16;2106664;28;20435;-77
2023/02/08 00:05:13;;;;;;;21.10;8.65;;;;;;;-8.33;76.57;97936.34;2106802;28;20043;-77
2023/02/08 00:06:14;;;;;;;20.33;8.80;;;;;;;-8.25;76.29;97937.66;2112150;28;20051;-76
2023/02/08 00:07:15;;;;;;;17.33;7.80;;;;;;;-8.31;76.66;97938.94;2102851;28;20047;-77
2023/02/08 00:08:17;;;;;;;19.30;9.13;;;;;;;-8.38;77.25;97937.72;2100427;28;20067;-75
2023/02/08 00:09:18;;;;;;;21.42;8.50;;;;;;;-8.51;77.87;97928.63;2106681;28;20032;-77
2023/02/08 00:10:19;;;;;;;20.83;8.60;;;;;;;-8.52;77.86;97933.59;2106629;28;20032;-77
2023/02/08 00:11:20;;;;;;;21.30;9.85;;;;;;;-8.56;78.60;97932.53;2106684;28;20042;-77
2023/02/08 00:12:21;;;;;;;19.45;9.25;;;;;;;-8.71;78.57;97919.06;2106694;28;20364;-77
2023/02/08 00:13:22;;;;;;;20.33;8.15;;;;;;;-8.50;79.01;97937.06;2106785;28;20470;-77
2023/02/08 00:14:23;;;;;;;17.52;7.88;;;;;;;-8.29;77.67;97935.72;2106577;28;20032;-77
2023/02/08 00:15:24;;;;;;;18.65;8.63;;;;;;;-8.41;77.77;97931.69;2106581;28;20032;-77
2023/02/08 00:16:26;;;;;;;20.77;8.15;;;;;;;-8.49;77.53;97929.59;2106714;28;20364;-77
2023/02/08 00:17:27;;;;;;;19.40;9.45;;;;;;;-8.52;77.37;97928.56;2106576;28;20032;-76
2023/02/08 00:18:28;;;;;;;16.92;8.40;;;;;;;-8.50;77.18;97934.53;2106473;28;20044;-77
2023/02/08 00:19:29;;;;;;;19.67;8.75;;;;;;;-8.55;77.64;97924.22;2106589;28;20045;-77
2023/02/08 00:20:30;;;;;;;17.88;8.20;;;;;;;-8.45;77.20;97918.88;2106539;28;20036;-77
2023/02/08 00:21:31;;;;;;;17.23;8.23;;;;;;;-8.43;77.20;97919.84;2097660;28;20063;-74
2023/02/08 00:22:32;;;;;;;22.50;9.30;;;;;;;-8.39;77.28;97922.53;2097740;28;20040;-74
2023/02/08 00:23:33;;;;;;;17.08;7.78;;;;;;;-8.22;77.68;97920.16;2105954;28;20052;-74
2023/02/08 00:24:34;;;;;;;22.40;9.13;;;;;;;-8.29;77.56;97922.25;2106360;28;20060;-74
2023/02/08 00:25:35;;;;;;;20.23;9.02;;;;;;;-8.39;77.67;97920.91;2106579;28;20054;-74
2023/02/08 00:26:37;;;;;;;19.63;9.65;;;;;;;-8.53;78.23;97901.59;2105822;28;20043;-75
2023/02/08 00:27:38;;;;;;;20.75;8.82;;;;;;;-8.38;77.21;97920.09;2097784;28;20040;-74
2023/02/08 00:28:39;;;;;;;20.23;8.98;;;;;;;-8.18;77.17;97917.81;2097509;28;20042;-74
2023/02/08 00:29:40;;;;;;;20.25;9.05;;;;;;;-8.19;76.82;97919.47;2097700;28;20040;-74
2023/02/08 00:30:41;;;;;;;19.48;8.60;;;;;;;-8.32;76.92;97922.09;2089169;28;20040;-74
2023/02/08 00:31:42;;;;;;;18.02;8.85;;;;;;;-8.38;77.67;97920.09;2089428;28;20136;-74
2023/02/08 00:32:44;;;;;;;18.90;8.90;;;;;;;-8.36;78.49;97926.09;2097638;28;20047;-74
2023/02/08 00:33:46;;;;;;;24.27;8.73;;;;;;;-8.35;78.87;97920.25;2089126;28;20045;-74
2023/02/08 00:34:47;;;;;;;22.48;9.65;;;;;;;-8.35;79.20;97905.13;2089331;28;20041;-74
2023/02/08 00:35:48;;;;;;;19.08;9.23;;;;;;;-8.43;78.04;97919.00;2097624;28;20476;-74
2023/02/08 00:36:49;;;;;;;18.98;8.75;;;;;;;-8.52;78.15;97924.38;2089201;28;20037;-74
2023/02/08 00:37:50;;;;;;;21.25;9.52;;;;;;;-8.56;78.76;97921.59;2089232;28;20052;-74
2023/02/08 00:38:52;;;;;;;24.30;10.32;;;;;;;-8.67;78.56;97906.72;2097528;28;20036;-74
2023/02/08 00:39:57;;;;;;;22.58;9.18;;;;;;;-8.63;78.38;97922.00;2097413;28;20044;-74
2023/02/08 00:40:58;;;;;;;20.33;9.25;;;;;;;-8.69;78.17;97918.34;2098592;28;20044;-74
2023/02/08 00:41:59;;;;;;;22.92;9.90;;;;;;;-8.73;78.20;97918.97;2090743;28;20045;-74
2023/02/08 00:43:01;;;;;;;21.88;9.90;;;;;;;-8.76;77.96;97912.91;2099065;28;20036;-74
2023/02/08 00:44:02;;;;;;;19.85;9.32;;;;;;;-8.76;78.11;97918.78;2099114;28;20404;-74
2023/02/08 00:45:03;;;;;;;25.60;10.20;;;;;;;-8.81;78.16;97912.63;2099165;28;20052;-74
2023/02/08 00:46:06;;;;;;;24.83;9.40;;;;;;;-8.83;78.00;97919.22;2099085;28;20079;-74
2023/02/08 00:47:07;;;;;;;19.92;9.45;;;;;;;-8.86;77.97;97911.47;2099440;28;20041;-74
2023/02/08 00:48:09;;;;;;;19.85;9.60;;;;;;;-8.89;78.14;97912.16;2108318;28;20040;-74
2023/02/08 00:49:10;;;;;;;22.05;9.45;;;;;;;-8.93;77.68;97909.38;2108237;28;20044;-74
2023/02/08 00:50:12;;;;;;;21.90;8.98;;;;;;;-8.96;77.52;97910.06;2090854;28;20052;-74
2023/02/08 00:51:13;;;;;;;22.42;9.45;;;;;;;-8.94;78.13;97910.16;2091232;28;20037;-76
2023/02/08 00:52:14;;;;;;;19.83;9.30;;;;;;;-8.94;79.20;97911.03;2082505;28;20042;-76
2023/02/08 00:53:15;;;;;;;21.00;9.32;;;;;;;-8.99;79.05;97912.41;2090825;28;20045;-76
2023/02/08 00:54:17;;;;;;;22.73;10.70;;;;;;;-8.99;79.15;97914.06;2099023;28;20036;-76
2023/02/08 00:55:18;;;;;;;20.50;9.40;;;;;;;-9.03;78.54;97914.63;2090810;28;20167;-76
2023/02/08 00:56:19;;;;;;;20.55;9.13;;;;;;;-9.05;79.21;97912.03;2090927;28;20361;-77
2023/02/08 00:57:20;;;;;;;21.38;9.50;;;;;;;-9.08;78.88;97909.34;2090876;28;20029;-77
2023/02/08 00:58:21;;;;;;;18.83;9.45;;;;;;;-9.08;79.27;97914.38;2090963;28;20156;-77
2023/02/08 00:59:22;;;;;;;20.25;9.30;;;;;;;-8.96;79.71;97911.72;2090704;28;20044;-77
2023/02/08 01:00:24;;;;;;;19.90;9.18;;;;;;;-8.99;79.94;97919.09;2098922;28;20040;-77
2023/02/08 01:01:25;;;;;;;19.27;8.88;;;;;;;-9.00;79.62;97914.84;2108100;28;20527;-77
2023/02/08 01:02:27;;;;;;;20.58;9.27;;;;;;;-9.02;79.72;97912.22;2099059;28;20047;-77
2023/02/08 01:03:28;;;;;;;21.85;8.98;;;;;;;-9.03;79.53;97913.00;2074386;28;20052;-77
2023/02/08 01:04:29;;;;;;;22.20;9.38;;;;;;;-9.04;79.74;97910.38;2082531;28;20033;-77
2023/02/08 01:05:30;;;;;;;19.55;8.63;;;;;;;-9.06;79.52;97910.31;2108025;28;20036;-77
2023/02/08 01:06:31;;;;;;;17.27;8.25;;;;;;;-9.05;79.80;97909.53;2107950;28;20387;-77
2023/02/08 01:07:35;;;;;;;21.67;9.68;;;;;;;-9.01;79.78;97913.94;2107986;28;20063;-77
2023/02/08 01:08:36;;;;;;;24.17;10.07;;;;;;;-9.05;79.56;97918.72;2108056;28;20046;-77
2023/02/08 01:09:37;;;;;;;21.75;9.18;;;;;;;-9.08;79.05;97918.56;2099146;28;20040;-78
2023/02/08 01:10:39;;;;;;;29.92;10.88;;;;;;;-8.93;79.44;97916.91;2098819;28;20526;-77
2023/02/08 01:11:40;;;;;;;20.77;9.98;;;;;;;-8.87;79.33;97914.78;2090679;28;20611;-77
2023/02/08 01:12:41;;;;;;;19.42;9.63;;;;;;;-8.97;79.54;97913.38;2074525;28;20045;-77
2023/02/08 01:13:42;;;;;;;21.38;9.07;;;;;;;-9.02;79.37;97914.75;2082557;28;20049;-77
2023/02/08 01:14:43;;;;;;;21.60;9.82;;;;;;;-8.99;80.88;97921.59;2098940;28;20039;-77
2023/02/08 01:15:44;;;;;;;25.10;10.60;;;;;;;-9.03;80.49;97924.69;2107896;28;20043;-77
2023/02/08 01:16:45;;;;;;;25.13;10.65;;;;;;;-9.06;80.92;97919.50;2108065;28;20032;-77
2023/02/08 01:17:52;;;;;;;27.05;10.77;;;;;;;-9.13;80.38;97916.63;2108015;28;20380;-77
2023/02/08 01:18:54;;;;;;;24.42;9.20;;;;;;;-9.15;80.36;97918.16;2090304;28;20414;-77
2023/02/08 01:19:55;;;;;;;18.88;9.52;;;;;;;-9.20;80.83;97899.41;2083306;28;20072;-77
2023/02/08 01:21:03;;;;;;;19.42;9.05;;;;;;;-8.93;79.99;97919.44;2098868;28;20043;-77
2023/02/08 01:22:04;;;;;;;20.20;9.43;;;;;;;-8.93;79.95;97919.44;2098869;28;20055;-77
2023/02/08 01:23:06;;;;;;;18.80;9.65;;;;;;;-8.88;79.97;97913.03;2090653;28;20481;-78
2023/02/08 01:24:07;;;;;;;20.75;10.50;;;;;;;-8.79;81.22;97918.63;2098918;28;20036;-77
2023/02/08 01:25:10;;;;;;;22.25;10.05;;;;;;;-8.70;79.86;97914.09;2098733;28;20049;-77
2023/02/08 01:26:12;;;;;;;21.15;9.77;;;;;;;-8.72;80.03;97915.66;2090727;28;20049;-77
2023/02/08 01:27:13;;;;;;;22.83;10.65;;;;;;;-8.81;79.78;97919.31;2098950;28;20044;-75
2023/02/08 01:28:14;;;;;;;23.25;9.95;;;;;;;-8.90;79.77;97924.66;2107806;28;20036;-76
2023/02/08 01:29:16;;;;;;;25.02;10.40;;;;;;;-8.97;79.85;97915.88;2090742;28;20041;-76
2023/02/08 01:30:17;;;;;;;27.17;10.73;;;;;;;-9.05;79.79;97906.16;2090522;28;20041;-76
2023/02/08 01:31:20;;;;;;;22.38;10.30;;;;;;;-8.99;79.62;97914.06;2107856;28;20032;-77
2023/02/08 01:32:21;;;;;;;23.25;10.85;;;;;;;-9.07;80.05;97917.75;2098735;28;20040;-77
2023/02/08 01:33:22;;;;;;;24.02;10.38;;;;;;;-9.11;80.27;97916.72;2098702;28;20036;-77
2023/02/08 01:34:23;;;;;;;19.98;9.40;;;;;;;-9.17;80.02;97917.22;2107754;28;20036;-77
2023/02/08 01:35:24;;;;;;;19.67;10.68;;;;;;;-9.19;80.19;97915.41;2107810;28;20459;-77
2023/02/08 01:36:26;;;;;;;25.05;11.35;;;;;;;-9.23;80.42;97919.34;2098989;28;20028;-74
2023/02/08 01:37:27;;;;;;;22.42;10.32;;;;;;;-9.27;80.02;97912.41;2090602;28;20136;-74
2023/02/08 01:38:28;;;;;;;24.00;10.52;;;;;;;-9.34;80.65;97905.28;2098904;28;20048;-74
2023/02/08 01:39:29;;;;;;;23.13;11.05;;;;;;;-9.29;80.82;97923.16;2098727;28;20421;-74
2023/02/08 01:40:30;;;;;;;25.85;11.80;;;;;;;-9.25;81.73;97923.41;2098974;28;20033;-74
2023/02/08 01:41:33;;;;;;;23.10;10.18;;;;;;;-9.21;81.93;97921.97;2099253;28;20044;-76
2023/02/08 01:42:34;;;;;;;24.67;10.27;;;;;;;-9.27;81.44;97919.97;2090650;28;20049;-76
2023/02/08 01:44:03;;;;;;;25.40;11.07;;;;;;;-9.27;80.80;97914.03;2098851;28;20464;-76
2023/02/08 01:45:14;;;;;;;24.65;10.35;;;;;;;-9.29;80.81;97923.16;2098539;28;20095;-76
2023/02/08 01:46:16;;;;;;;22.85;10.40;;;;;;;-9.33;80.81;97917.06;2091788;28;20436;-75
2023/02/08 01:47:17;;;;;;;28.27;10.52;;;;;;;-9.33;81.43;97904.47;2098980;28;20051;-74
2023/02/08 01:48:27;;;;;;;26.88;10.68;;;;;;;-9.19;80.92;97920.44;2082004;28;20409;-74
2023/02/08 01:49:33;;;;;;;26.75;10.25;;;;;;;-9.27;81.20;97909.00;2077637;28;20049;-74
2023/02/08 01:50:48;;;;;;;21.63;10.45;;;;;;;-9.19;81.41;97921.28;2091265;28;20045;-74
2023/02/08 01:51:58;;;;;;;23.70;10.93;;;;;;;-9.19;81.66;97916.25;2091809;28;20049;-74
2023/02/08 01:53:01;;;;;;;24.52;11.13;;;;;;;-9.38;80.76;97894.16;2098773;28;20036;-74
2023/02/08 01:54:02;;;;;;;23.65;10.43;;;;;;;-9.28;80.91;97909.81;2090422;28;20132;-74
2023/02/08 01:55:30;;;;;;;23.60;11.35;;;;;;;-9.29;80.75;97908.94;2090367;28;20492;-73
2023/02/08 01:56:33;;;;;;;23.00;11.05;;;;;;;-9.48;81.29;97884.31;2087103;28;20045;-76
2023/02/08 01:57:34;;;;;;;22.25;10.00;;;;;;;-9.35;80.66;97906.06;2082233;28;20045;-76
2023/02/08 01:58:44;;;;;;;30.30;11.25;;;;;;;-9.35;80.79;97903.53;2081954;28;20037;-75
2023/02/08 01:59:49;;;;;;;22.25;10.90;;;;;;;-9.35;80.96;97906.94;2068620;28;20046;-75
2023/02/08 02:00:50;;;;;;;26.25;11.88;;;;;;;-9.35;81.35;97903.53;2077335;28;20054;-75
2023/02/08 02:01:51;;;;;;;24.70;11.38;;;;;;;-9.30;81.40;97906.31;2099771;28;20043;-75
2023/02/08 02:02:53;;;;;;;30.40;12.15;;;;;;;-9.33;81.10;97897.81;2090592;28;20052;-76
2023/02/08 02:03:54;;;;;;;28.20;10.88;;;;;;;-9.32;80.73;97898.69;2074004;28;20532;-76
2023/02/08 02:04:55;;;;;;;26.80;11.65;;;;;;;-9.30;81.30;97899.66;2074071;28;20041;-76
2023/02/08 02:06:03;;;;;;;23.85;10.45;;;;;;;-9.32;81.01;97898.69;2081965;28;20108;-75
2023/02/08 02:07:05;;;;;;;27.40;11.27;;;;;;;-9.32;80.88;97894.53;2083011;28;20044;-76
2023/02/08 02:08:06;;;;;;;25.17;11.52;;;;;;;-9.39;80.89;97881.47;2090177;28;20040;-76
2023/02/08 02:09:27;;;;;;;27.83;11.23;;;;;;;-9.25;81.17;97894.88;2090381;28;20072;-76
2023/02/08 02:10:31;;;;;;;30.25;11.95;;;;;;;-9.27;81.88;97888.88;2092990;28;20480;-76
2023/02/08 02:11:32;;;;;;;27.17;11.13;;;;;;;-9.02;82.53;97898.78;2074214;28;20042;-76
2023/02/08 02:12:33;;;;;;;26.98;10.60;;;;;;;-9.09;81.25;97900.03;2082192;28;20041;-76
2023/02/08 02:13:35;;;;;;;23.73;10.70;;;;;;;-9.10;81.52;97899.19;2081779;28;20039;-75
2023/02/08 02:14:37;;;;;;;22.27;11.82;;;;;;;-9.00;80.95;97893.03;2073954;28;20034;-76
2023/02/08 02:15:38;;;;;;;25.35;10.82;;;;;;;-8.92;81.50;97896.03;2073735;28;20044;-75
2023/02/08 02:16:39;;;;;;;29.88;11.55;;;;;;;-8.83;81.42;97899.06;2090259;28;20080;-77
2023/02/08 02:17:40;;;;;;;26.52;11.07;;;;;;;-8.97;80.84;97893.22;2107599;28;20043;-77
2023/02/08 02:18:43;;;;;;;26.58;11.20;;;;;;;-9.04;80.66;97897.81;2098344;28;20036;-77
2023/02/08 02:19:59;;;;;;;27.35;11.20;;;;;;;-9.07;80.88;97895.13;2073903;28;20489;-77
2023/02/08 02:21:48;;;;;;;27.10;12.23;;;;;;;-9.02;80.66;97893.75;2079832;28;20513;-77
2023/02/08 02:23:08;;;;;;;24.10;11.02;;;;;;;-8.96;80.22;97892.44;2055492;28;20435;-77
2023/02/08 02:24:32;;;;;;;28.67;11.07;;;;;;;-8.82;80.74;97887.34;2104784;28;20047;-77
2023/02/08 02:25:48;;;;;;;27.27;12.48;;;;;;;-8.93;80.37;97871.59;2098312;28;20100;-77
2023/02/08 02:27:22;;;;;;;25.33;12.30;;;;;;;-8.89;80.58;97893.69;2092139;28;20044;-77
2023/02/08 02:28:57;;;;;;;25.92;12.27;;;;;;;-8.80;80.65;97890.81;2086832;28;20408;-77
2023/02/08 02:30:22;;;;;;;26.58;11.35;;;;;;;-8.95;80.04;97890.81;2102470;28;20036;-77
2023/02/08 02:31:44;;;;;;;28.05;11.55;;;;;;;-9.03;80.22;97886.94;2092927;28;20045;-77
2023/02/08 02:32:57;;;;;;;23.63;10.98;;;;;;;-8.96;80.88;97891.56;2095941;28;20040;-77
2023/02/08 02:34:05;;;;;;;29.83;11.93;;;;;;;-9.03;79.95;97889.47;2081824;28;20052;-77
2023/02/08 02:35:32;;;;;;;30.60;13.02;;;;;;;-8.99;80.33;97891.41;2075731;28;20038;-77
2023/02/08 02:36:43;;;;;;;27.98;12.60;;;;;;;-8.89;81.33;97891.16;2058954;28;20046;-77
2023/02/08 02:37:48;;;;;;;27.40;12.35;;;;;;;-8.94;81.48;97892.53;2091320;28;20464;-77
2023/02/08 02:39:05;;;;;;;28.65;13.18;;;;;;;-8.98;81.38;97885.56;2090754;28;20100;-77
2023/02/08 02:40:20;;;;;;;29.52;13.90;;;;;;;-9.10;80.95;97888.25;2092382;28;20155;-77
2023/02/08 02:44:28;;;;;;;25.88;11.45;;;;;;;-9.07;80.19;97903.53;2098109;28;19912;-77
2023/02/08 02:45:40;;;;;;;25.27;12.48;;;;;;;-9.23;80.55;97899.22;2090015;28;20044;-77
2023/02/08 02:46:44;;;;;;;26.80;12.50;;;;;;;-9.35;80.55;97894.34;2077099;28;20034;-77
2023/02/08 02:48:04;;;;;;;35.83;13.32;;;;;;;-9.42;81.24;97882.16;2074453;28;20173;-78
2023/02/08 02:49:11;;;;;;;27.85;13.32;;;;;;;-9.28;80.81;97899.72;2079093;28;20045;-77
2023/02/08 02:50:32;;;;;;;27.08;12.93;;;;;;;-9.32;81.17;97898.69;2093627;28;20408;-78
2023/02/08 02:51:51;;;;;;;26.00;12.80;;;;;;;-9.36;80.53;97896.75;2090447;28;20048;-74
2023/02/08 02:53:02;;;;;;;32.80;13.00;;;;;;;-9.39;81.09;97906.63;2096422;28;20048;-74
2023/02/08 02:54:10;;;;;;;25.10;11.73;;;;;;;-9.45;81.05;97897.06;2107144;28;20040;-73
2023/02/08 02:55:13;;;;;;;31.48;12.57;;;;;;;-9.13;81.01;97898.13;2098087;28;20140;-74
2023/02/08 02:56:17;;;;;;;32.95;13.32;;;;;;;-9.19;80.66;97890.22;2082486;28;20037;-74
2023/02/08 02:57:21;;;;;;;27.77;12.60;;;;;;;-9.17;81.41;97894.59;2074365;28;20033;-73
2023/02/08 02:58:22;;;;;;;28.92;12.52;;;;;;;-9.18;80.79;97897.84;2082420;28;20052;-73
2023/02/08 02:59:23;;;;;;;29.15;13.32;;;;;;;-9.20;81.28;97896.03;2089870;28;20036;-74
2023/02/08 03:00:25;;;;;;;29.63;14.43;;;;;;;-9.22;80.75;97895.06;2081583;28;20037;-74
2023/02/08 03:01:28;;;;;;;27.23;12.45;;;;;;;-9.25;81.38;97900.78;2081857;28;20501;-74
2023/02/08 03:02:29;;;;;;;28.58;13.55;;;;;;;-9.40;80.93;97872.19;2090565;28;20374;-74
2023/02/08 03:03:32;;;;;;;29.73;13.18;;;;;;;-9.24;81.38;97901.66;2106118;28;20463;-74
2023/02/08 03:04:33;;;;;;;25.50;11.85;;;;;;;-9.27;80.85;97896.44;2098072;28;20066;-74
2023/02/08 03:05:34;;;;;;;29.50;12.70;;;;;;;-9.30;80.65;97897.16;2097847;28;20062;-74
2023/02/08 03:06:43;;;;;;;27.10;12.25;;;;;;;-9.32;81.10;97896.19;2097977;28;20045;-74
2023/02/08 03:08:15;;;;;;;28.27;12.45;;;;;;;-9.15;81.60;97894.66;2099315;28;20059;-74
2023/02/08 03:09:22;;;;;;;33.17;13.48;;;;;;;-9.30;81.27;97893.72;2097942;28;20468;-74
2023/02/08 03:10:46;;;;;;;31.55;13.30;;;;;;;-9.39;81.18;97889.88;2090579;28;20037;-73
2023/02/08 03:12:08;;;;;;;31.65;12.73;;;;;;;-9.35;81.59;97896.84;2093170;28;20044;-74
2023/02/08 03:13:31;;;;;;;31.63;13.07;;;;;;;-9.48;81.41;97880.94;2086865;28;20037;-74
2023/02/08 03:14:37;;;;;;;32.95;12.63;;;;;;;-9.40;81.43;97890.69;2088911;28;20040;-73
2023/02/08 03:16:26;;;;;;;33.75;14.50;;;;;;;-9.40;81.91;97889.81;2083894;28;20513;-74
2023/02/08 03:17:38;;;;;;;32.03;13.57;;;;;;;-9.32;82.23;97881.94;2090355;28;20384;-74
2023/02/08 03:19:05;;;;;;;31.63;12.20;;;;;;;-9.30;82.02;97886.19;2097902;28;20036;-74
2023/02/08 03:20:30;;;;;;;31.35;13.23;;;;;;;-9.33;81.47;97886.88;2093189;28;20049;-74
2023/02/08 03:21:57;;;;;;;31.45;13.35;;;;;;;-9.42;81.73;97883.81;2081489;28;20381;-74
2023/02/08 03:23:05;;;;;;;31.52;13.88;;;;;;;-9.41;81.77;97888.06;2095165;28;20044;-74
2023/02/08 03:24:31;;;;;;;32.88;13.30;;;;;;;-9.50;81.43;97888.38;2098138;28;20422;-74
2023/02/08 03:25:50;;;;;;;26.63;12.90;;;;;;;-9.43;82.49;97892.16;2092813;28;20036;-74
2023/02/08 03:26:59;;;;;;;30.13;12.85;;;;;;;-9.65;81.38;97869.84;2083960;28;20041;-74
2023/02/08 03:28:18;;;;;;;28.63;13.68;;;;;;;-9.59;81.42;97882.81;2094398;28;20040;-74
2023/02/08 03:29:42;;;;;;;33.17;14.30;;;;;;;-9.59;81.79;97885.31;2089560;28;20036;-73
2023/02/08 03:31:00;;;;;;;29.73;13.55;;;;;;;-9.67;81.04;97886.50;2090473;28;20047;-74
2023/02/08 03:32:05;;;;;;;32.35;13.70;;;;;;;-9.73;81.09;97889.47;2089451;28;20041;-74
2023/02/08 03:33:17;;;;;;;30.30;12.57;;;;;;;-9.81;81.40;97873.94;2076019;28;20049;-74
2023/02/08 03:34:32;;;;;;;31.25;13.68;;;;;;;-9.91;81.59;97860.72;2084713;28;20037;-74
2023/02/08 03:35:39;;;;;;;28.73;14.55;;;;;;;-9.85;82.26;97864.47;2083126;28;20156;-74
2023/02/08 03:36:52;;;;;;;29.88;13.52;;;;;;;-9.71;82.45;97884.56;2076749;28;20037;-75
2023/02/08 03:37:57;;;;;;;31.60;14.32;;;;;;;-9.50;82.98;97882.47;2093468;28;20048;-75
2023/02/08 03:39:00;;;;;;;31.70;14.32;;;;;;;-9.50;82.58;97874.94;2098091;28;20044;-75
2023/02/08 03:40:28;;;;;;;29.90;14.40;;;;;;;-9.53;82.69;97852.97;2081737;28;20378;-75
2023/02/08 03:41:32;;;;;;;26.30;12.98;;;;;;;-9.42;82.07;97861.16;2084907;28;20045;-75
2023/02/08 03:42:33;;;;;;;31.15;13.90;;;;;;;-9.30;82.08;97871.09;2093651;28;20044;-75
2023/02/08 03:43:37;;;;;;;32.25;13.85;;;;;;;-9.19;82.26;97881.03;2089416;28;20420;-75
2023/02/08 03:44:40;;;;;;;30.33;14.50;;;;;;;-9.16;82.23;97873.66;2081884;28;20488;-75
2023/02/08 03:45:50;;;;;;;30.23;13.50;;;;;;;-9.14;82.51;97873.72;2081468;28;20041;-75
2023/02/08 03:46:54;;;;;;;28.60;13.75;;;;;;;-9.16;81.71;97865.25;2089596;28;20068;-75
2023/02/08 03:47:56;;;;;;;29.30;13.77;;;;;;;-9.05;81.65;97881.84;2091353;28;20036;-75
2023/02/08 03:49:02;;;;;;;30.92;13.52;;;;;;;-9.07;81.66;97880.00;2097582;28;20032;-75
2023/02/08 03:50:06;;;;;;;30.40;13.82;;;;;;;-9.02;81.39;97868.56;2082071;28;20052;-75
2023/02/08 03:51:07;;;;;;;28.08;13.10;;;;;;;-8.84;81.47;97874.66;2081815;28;20530;-75
2023/02/08 03:52:08;;;;;;;30.73;12.98;;;;;;;-8.80;81.09;97876.56;2089550;28;20056;-74
2023/02/08 03:53:09;;;;;;;32.53;14.00;;;;;;;-8.85;80.70;97869.53;2097894;28;20040;-75
2023/02/08 03:54:14;;;;;;;30.70;14.27;;;;;;;-8.77;80.33;97863.28;2097995;28;20495;-75
2023/02/08 03:55:17;;;;;;;29.55;13.45;;;;;;;-8.69;80.61;97875.53;2090210;28;20122;-75
2023/02/08 03:56:33;;;;;;;28.05;12.80;;;;;;;-8.55;80.17;97865.38;2090573;28;20045;-74
2023/02/08 03:57:41;;;;;;;32.08;13.82;;;;;;;-8.65;80.51;97856.44;2083451;28;20045;-75
2023/02/08 03:58:45;;;;;;;29.90;13.50;;;;;;;-8.42;79.50;97860.25;2084309;28;20473;-75
2023/02/08 03:59:50;;;;;;;30.60;13.82;;;;;;;-8.34;79.70;97858.13;2082372;28;20044;-75
2023/02/08 04:00:55;;;;;;;32.10;13.98;;;;;;;-8.35;79.60;97862.28;2090397;28;20417;-75
2023/02/08 04:02:00;;;;;;;30.73;13.07;;;;;;;-8.22;78.85;97863.84;2089277;28;20516;-75
2023/02/08 04:03:05;;;;;;;32.13;13.57;;;;;;;-8.31;79.14;97861.69;2074115;28;20536;-75
2023/02/08 04:04:06;;;;;;;26.95;13.30;;;;;;;-8.38;78.93;97852.06;2082491;28;20060;-75
2023/02/08 04:05:07;;;;;;;29.33;12.88;;;;;;;-8.40;78.60;97861.19;2089396;28;20043;-75
2023/02/08 04:06:09;;;;;;;26.27;11.95;;;;;;;-8.39;78.63;97859.53;2081023;28;20037;-75
2023/02/08 04:07:10;;;;;;;32.85;13.30;;;;;;;-8.37;78.68;97861.34;2081197;28;20053;-75
2023/02/08 04:08:11;;;;;;;30.75;13.63;;;;;;;-8.32;78.77;97864.13;2080297;28;20060;-75
2023/02/08 04:09:12;;;;;;;31.27;14.40;;;;;;;-8.36;79.22;97865.63;2097602;28;20044;-75
2023/02/08 04:10:13;;;;;;;28.70;13.00;;;;;;;-8.34;78.91;97858.13;2106701;28;20039;-75
2023/02/08 04:11:14;;;;;;;27.65;12.75;;;;;;;-8.38;78.63;97852.06;2097572;28;20048;-75
2023/02/08 04:12:15;;;;;;;30.20;13.40;;;;;;;-8.39;78.40;97862.97;2089269;28;20041;-75
2023/02/08 04:13:17;;;;;;;32.80;14.60;;;;;;;-8.46;78.43;97864.25;2097758;28;20063;-75
2023/02/08 04:14:18;;;;;;;31.92;14.00;;;;;;;-8.47;78.59;97852.44;2105744;28;20441;-75
2023/02/08 04:15:19;;;;;;;33.85;13.10;;;;;;;-8.53;78.95;97852.06;2106592;28;20032;-75
2023/02/08 04:16:20;;;;;;;35.75;14.00;;;;;;;-8.60;78.98;97860.09;2106459;28;20043;-75
2023/02/08 04:17:21;;;;;;;28.08;13.55;;;;;;;-8.60;78.88;97856.72;2106534;28;20439;-75
2023/02/08 04:18:22;;;;;;;32.03;14.00;;;;;;;-8.63;79.23;97864.06;2106490;28;20058;-75
2023/02/08 04:19:23;;;;;;;28.35;13.13;;;;;;;-8.64;79.12;97860.69;2106429;28;20044;-75
2023/02/08 04:20:24;;;;;;;29.02;13.57;;;;;;;-8.57;79.27;97854.34;2106489;28;20043;-75
2023/02/08 04:21:26;;;;;;;30.05;13.43;;;;;;;-8.64;79.60;97848.09;2089256;28;20412;-75
2023/02/08 04:22:27;;;;;;;30.52;13.95;;;;;;;-8.62;79.09;97858.25;2089392;28;20392;-75
2023/02/08 04:23:28;;;;;;;30.30;12.90;;;;;;;-8.49;79.37;97850.63;2097446;28;20051;-75
2023/02/08 04:24:29;;;;;;;30.30;14.57;;;;;;;-8.60;78.99;97844.97;2097437;28;20043;-75
2023/02/08 04:25:30;;;;;;;35.17;14.10;;;;;;;-8.62;79.40;97855.75;2106514;28;20498;-75
2023/02/08 04:26:31;;;;;;;29.50;13.05;;;;;;;-8.47;79.09;97846.53;2106474;28;20043;-75
2023/02/08 04:27:32;;;;;;;34.13;14.95;;;;;;;-8.50;79.30;97851.38;2106449;28;20032;-75
2023/02/08 04:28:35;;;;;;;31.33;13.93;;;;;;;-8.49;79.33;97848.97;2097424;28;20047;-75
2023/02/08 04:29:36;;;;;;;27.33;12.98;;;;;;;-8.39;78.77;97849.47;2089214;28;20064;-74
2023/02/08 04:30:37;;;;;;;28.58;12.65;;;;;;;-8.38;78.47;97852.06;2089531;28;20488;-75
2023/02/08 04:31:38;;;;;;;30.10;14.15;;;;;;;-8.45;78.68;97850.84;2097441;28;20040;-75
2023/02/08 04:32:39;;;;;;;29.27;14.48;;;;;;;-8.50;78.69;97852.28;2097048;28;20075;-75
2023/02/08 04:33:40;;;;;;;33.60;13.68;;;;;;;-8.57;78.47;97831.69;2097608;28;20534;-75
2023/02/08 04:34:41;;;;;;;33.13;13.48;;;;;;;-8.57;78.58;97849.31;2097695;28;20032;-75
2023/02/08 04:35:42;;;;;;;29.23;13.15;;;;;;;-8.56;79.03;97856.94;2097412;28;20040;-75
2023/02/08 04:36:43;;;;;;;26.83;13.05;;;;;;;-8.64;79.31;97839.66;2106435;28;20028;-75
2023/02/08 04:37:45;;;;;;;30.85;14.18;;;;;;;-8.62;79.04;97846.53;2097503;28;20476;-75
2023/02/08 04:38:46;;;;;;;30.27;13.10;;;;;;;-8.61;79.52;97852.44;2097569;28;20506;-75
2023/02/08 04:39:47;;;;;;;34.40;15.00;;;;;;;-8.74;79.54;97841.69;2106496;28;20040;-75
2023/02/08 04:40:48;;;;;;;27.88;13.38;;;;;;;-8.76;78.70;97853.31;2106440;28;20039;-75
2023/02/08 04:41:49;;;;;;;31.67;13.48;;;;;;;-8.81;79.41;97853.84;2106405;28;20048;-75
2023/02/08 04:42:50;;;;;;;30.05;14.25;;;;;;;-8.82;79.13;97845.41;2106404;28;20483;-75
2023/02/08 04:43:51;;;;;;;33.83;14.25;;;;;;;-8.75;79.66;97850.00;2097450;28;20047;-75
2023/02/08 04:44:53;;;;;;;32.15;14.88;;;;;;;-8.61;79.42;97848.25;2097457;28;20087;-74
2023/02/08 04:45:54;;;;;;;34.47;13.73;;;;;;;-8.60;79.44;97844.13;2097396;28;20496;-75
2023/02/08 04:46:55;;;;;;;25.45;11.57;;;;;;;-8.57;79.86;97837.59;2097441;28;20033;-75
2023/02/08 04:47:56;;;;;;;31.30;13.88;;;;;;;-8.47;79.99;97821.34;2097535;28;20041;-74
2023/02/08 04:48:57;;;;;;;31.90;14.30;;;;;;;-8.33;79.31;97829.63;2097441;28;20044;-75
2023/02/08 04:49:59;;;;;;;30.50;13.63;;;;;;;-8.33;79.44;97833.00;2106331;28;20035;-75
2023/02/08 04:51:00;;;;;;;26.88;11.88;;;;;;;-8.32;79.49;97817.09;2106321;28;20119;-75
2023/02/08 04:52:01;;;;;;;31.42;13.32;;;;;;;-8.17;78.76;97826.31;2106692;28;20036;-76
2023/02/08 04:53:02;;;;;;;28.23;13.02;;;;;;;-8.07;78.85;97831.03;2106345;28;20047;-76
2023/02/08 04:54:03;;;;;;;35.80;15.00;;;;;;;-8.03;78.37;97821.19;2106396;28;20070;-76
2023/02/08 04:55:04;;;;;;;30.42;14.63;;;;;;;-8.07;78.29;97818.44;2106410;28;20035;-76
2023/02/08 04:56:06;;;;;;;33.25;14.55;;;;;;;-8.18;78.25;97817.84;2106480;28;20044;-76
2023/02/08 04:57:10;;;;;;;27.70;12.32;;;;;;;-7.97;78.69;97813.09;2097309;28;20025;-76
2023/02/08 04:58:11;;;;;;;32.97;14.48;;;;;;;-7.87;77.49;97817.00;2089599;28;20528;-76
2023/02/08 04:59:12;;;;;;;27.45;11.93;;;;;;;-7.94;78.05;97808.22;2097530;28;20044;-76
2023/02/08 05:00:14;;;;;;;25.50;12.27;;;;;;;-7.83;76.74;97812.19;2106280;28;20043;-76
2023/02/08 05:01:15;;;;;;;28.38;13.20;;;;;;;-7.91;77.72;97810.94;2106505;28;20036;-76
2023/02/08 05:02:16;;;;;;;35.70;14.60;;;;;;;-7.95;77.46;97811.53;2106358;28;20043;-76
2023/02/08 05:03:17;;;;;;;32.03;13.68;;;;;;;-7.95;77.98;97811.53;2106307;28;20371;-75